createdAt,value
2018-01-29T00:00:26.688Z,1024.92
2018-01-29T00:01:26.640Z,1024.97
2018-01-29T00:02:26.608Z,1024.99
2018-01-29T00:03:26.567Z,1024.99
2018-01-29T00:04:26.542Z,1024.89
2018-01-29T00:05:26.518Z,1024.94
2018-01-29T00:06:26.461Z,1024.94
2018-01-29T00:07:26.423Z,1024.86
2018-01-29T00:08:26.388Z,1024.89
2018-01-29T00:09:26.336Z,1024.90
2018-01-29T00:10:26.331Z,1024.85
2018-01-29T00:11:26.259Z,1024.82
2018-01-29T00:12:26.230Z,1024.77
2018-01-29T00:13:26.189Z,1024.83
2018-01-29T00:14:26.147Z,1024.77
2018-01-29T00:15:26.134Z,1024.87
2018-01-29T00:16:26.065Z,1024.82
2018-01-29T00:17:26.036Z,1024.81
2018-01-29T00:18:25.986Z,1024.80
2018-01-29T00:19:25.958Z,1024.80
2018-01-29T00:20:25.921Z,1024.82
2018-01-29T00:21:25.911Z,1024.84
2018-01-29T00:22:25.851Z,1024.77
2018-01-29T00:23:25.806Z,1024.76
2018-01-29T00:24:25.758Z,1024.77
2018-01-29T00:25:25.724Z,1024.80
2018-01-29T00:26:25.687Z,1024.70
2018-01-29T00:27:25.680Z,1024.74
2018-01-29T00:28:25.608Z,1024.72
2018-01-29T00:29:25.595Z,1024.76
2018-01-29T00:30:25.529Z,1024.70
2018-01-29T00:31:25.489Z,1024.67
2018-01-29T00:32:25.469Z,1024.66
2018-01-29T00:33:25.434Z,1024.65
2018-01-29T00:34:25.374Z,1024.68
2018-01-29T00:35:25.332Z,1024.64
2018-01-29T00:36:25.302Z,1024.62
2018-01-29T00:37:25.262Z,1024.57
2018-01-29T00:38:25.249Z,1024.67
2018-01-29T00:39:25.186Z,1024.60
2018-01-29T00:40:25.144Z,1024.62
2018-01-29T00:41:25.103Z,1024.56
2018-01-29T00:42:25.072Z,1024.52
2018-01-29T00:43:25.051Z,1024.53
2018-01-29T00:44:24.985Z,1024.52
2018-01-29T00:45:24.956Z,1024.54
2018-01-29T00:46:24.937Z,1024.53
2018-01-29T00:47:24.872Z,1024.50
2018-01-29T00:48:24.862Z,1024.49
2018-01-29T00:49:24.804Z,1024.50
2018-01-29T00:50:24.756Z,1024.50
2018-01-29T00:51:24.725Z,1024.55
2018-01-29T00:52:24.677Z,1024.62
2018-01-29T00:53:24.645Z,1024.59
2018-01-29T00:54:24.630Z,1024.59
2018-01-29T00:55:24.573Z,1024.51
2018-01-29T00:56:24.527Z,1024.50
2018-01-29T00:57:24.499Z,1024.52
2018-01-29T00:58:24.446Z,1024.57
2018-01-29T00:59:24.413Z,1024.52
2018-01-29T01:00:24.406Z,1024.57
2018-01-29T01:01:24.331Z,1024.50
2018-01-29T01:02:24.297Z,1024.49
2018-01-29T01:03:24.261Z,1024.51
2018-01-29T01:04:24.221Z,1024.43
2018-01-29T01:05:24.204Z,1024.48
2018-01-29T01:06:24.142Z,1024.52
2018-01-29T01:07:24.101Z,1024.47
2018-01-29T01:08:24.072Z,1024.48
2018-01-29T01:09:24.027Z,1024.50
2018-01-29T01:10:23.991Z,1024.49
2018-01-29T01:11:23.986Z,1024.47
2018-01-29T01:12:23.909Z,1024.53
2018-01-29T01:13:23.867Z,1024.43
2018-01-29T01:14:23.829Z,1024.42
2018-01-29T01:15:23.803Z,1024.46
2018-01-29T01:16:23.755Z,1024.47
2018-01-29T01:17:23.747Z,1024.43
2018-01-29T01:18:23.674Z,1024.45
2018-01-29T01:19:23.641Z,1024.48
2018-01-29T01:20:23.607Z,1024.51
2018-01-29T01:21:23.561Z,1024.37
2018-01-29T01:22:23.529Z,1024.45
2018-01-29T01:23:23.516Z,1024.41
2018-01-29T01:24:23.448Z,1024.38
2018-01-29T01:25:23.406Z,1024.40
2018-01-29T01:26:23.373Z,1024.40
2018-01-29T01:27:23.330Z,1024.37
2018-01-29T01:28:23.297Z,1024.43
2018-01-29T01:29:23.284Z,1024.41
2018-01-29T01:30:23.220Z,1024.35
2018-01-29T01:31:23.183Z,1024.42
2018-01-29T01:32:23.148Z,1024.39
2018-01-29T01:33:23.099Z,1024.37
2018-01-29T01:34:23.087Z,1024.37
2018-01-29T01:35:23.022Z,1024.39
2018-01-29T01:36:22.990Z,1024.39
2018-01-29T01:37:22.945Z,1024.38
2018-01-29T01:38:22.907Z,1024.36
2018-01-29T01:39:22.868Z,1024.36
2018-01-29T01:40:22.853Z,1024.38
2018-01-29T01:41:22.804Z,1024.32
2018-01-29T01:42:22.760Z,1024.38
2018-01-29T01:43:22.715Z,1024.34
2018-01-29T01:44:22.678Z,1024.39
2018-01-29T01:45:22.643Z,1024.33
2018-01-29T01:46:22.633Z,1024.28
2018-01-29T01:47:22.564Z,1024.33
2018-01-29T01:48:22.520Z,1024.31
2018-01-29T01:49:22.485Z,1024.34
2018-01-29T01:50:22.449Z,1024.31
2018-01-29T01:51:22.408Z,1024.36
2018-01-29T01:52:22.395Z,1024.32
2018-01-29T01:53:22.334Z,1024.31
2018-01-29T01:54:22.292Z,1024.35
2018-01-29T01:55:22.260Z,1024.33
2018-01-29T01:56:22.213Z,1024.33
2018-01-29T01:57:22.178Z,1024.31
2018-01-29T01:58:22.170Z,1024.30
2018-01-29T01:59:22.093Z,1024.26
2018-01-29T02:00:22.057Z,1024.28
2018-01-29T02:01:22.022Z,1024.25
2018-01-29T02:02:21.985Z,1024.28
2018-01-29T02:03:21.947Z,1024.25
2018-01-29T02:04:21.935Z,1024.23
2018-01-29T02:05:21.863Z,1024.18
2018-01-29T02:06:21.826Z,1024.18
2018-01-29T02:07:21.785Z,1024.20
2018-01-29T02:08:21.754Z,1024.12
2018-01-29T02:09:21.717Z,1024.11
2018-01-29T02:10:21.696Z,1024.07
2018-01-29T02:11:21.631Z,1024.12
2018-01-29T02:12:21.595Z,1024.07
2018-01-29T02:13:21.566Z,1024.06
2018-01-29T02:14:21.525Z,1024.05
2018-01-29T02:15:21.506Z,1024.03
2018-01-29T02:16:21.438Z,1024.01
2018-01-29T02:17:21.407Z,1024.05
2018-01-29T02:18:21.359Z,1024.09
2018-01-29T02:19:21.329Z,1023.97
2018-01-29T02:20:21.316Z,1023.96
2018-01-29T02:21:21.268Z,1023.87
2018-01-29T02:22:21.205Z,1024.03
2018-01-29T02:23:21.175Z,1023.98
2018-01-29T02:24:21.133Z,1023.98
2018-01-29T02:25:21.089Z,1023.99
2018-01-29T02:26:21.088Z,1023.95
2018-01-29T02:27:21.014Z,1023.89
2018-01-29T02:28:20.975Z,1023.88
2018-01-29T02:29:20.951Z,1023.86
2018-01-29T02:30:20.903Z,1023.92
2018-01-29T02:31:20.858Z,1023.86
2018-01-29T02:32:20.848Z,1023.88
2018-01-29T02:33:20.799Z,1023.87
2018-01-29T02:34:20.749Z,1023.83
2018-01-29T02:35:20.714Z,1023.82
2018-01-29T02:36:20.664Z,1023.89
2018-01-29T02:37:20.626Z,1023.82
2018-01-29T02:38:20.611Z,1023.79
2018-01-29T02:39:20.549Z,1023.83
2018-01-29T02:40:20.517Z,1023.84
2018-01-29T02:41:20.478Z,1023.79
2018-01-29T02:42:20.433Z,1023.71
2018-01-29T02:43:20.423Z,1023.67
2018-01-29T02:44:20.361Z,1023.67
2018-01-29T02:45:20.315Z,1023.57
2018-01-29T02:46:20.291Z,1023.56
2018-01-29T02:47:20.247Z,1023.54
2018-01-29T02:48:20.207Z,1023.44
2018-01-29T02:49:20.193Z,1023.46
2018-01-29T02:50:20.138Z,1023.45
2018-01-29T02:51:20.088Z,1023.40
2018-01-29T02:52:20.047Z,1023.43
2018-01-29T02:53:20.006Z,1023.34
2018-01-29T02:54:19.972Z,1023.35
2018-01-29T02:55:19.968Z,1023.29
2018-01-29T02:56:19.900Z,1023.35
2018-01-29T02:57:19.860Z,1023.39
2018-01-29T02:58:19.821Z,1023.38
2018-01-29T02:59:30.111Z,1023.28
2018-01-29T03:00:19.738Z,1023.33
2018-01-29T03:01:19.727Z,1023.26
2018-01-29T03:02:19.667Z,1023.27
2018-01-29T03:03:19.620Z,1023.31
2018-01-29T03:04:19.587Z,1023.27
2018-01-29T03:05:19.552Z,1023.30
2018-01-29T03:06:19.501Z,1023.25
2018-01-29T03:07:19.505Z,1023.25
2018-01-29T03:08:19.435Z,1023.23
2018-01-29T03:09:19.388Z,1023.21
2018-01-29T03:10:19.346Z,1023.14
2018-01-29T03:11:19.352Z,1023.15
2018-01-29T03:12:19.273Z,1023.17
2018-01-29T03:13:19.263Z,1023.15
2018-01-29T03:14:19.193Z,1023.08
2018-01-29T03:15:19.151Z,1023.19
2018-01-29T03:16:19.132Z,1023.18
2018-01-29T03:17:19.073Z,1023.13
2018-01-29T03:18:19.040Z,1023.10
2018-01-29T03:19:19.033Z,1023.07
2018-01-29T03:20:18.967Z,1023.06
2018-01-29T03:21:18.919Z,1022.97
2018-01-29T03:22:18.882Z,1023.13
2018-01-29T03:23:18.849Z,1023.08
2018-01-29T03:24:18.811Z,1023.05
2018-01-29T03:25:18.799Z,1023.04
2018-01-29T03:26:18.729Z,1022.99
2018-01-29T03:27:18.704Z,1023.00
2018-01-29T03:28:18.653Z,1022.94
2018-01-29T03:29:18.620Z,1022.99
2018-01-29T03:30:18.576Z,1022.95
2018-01-29T03:31:18.588Z,1022.93
2018-01-29T03:32:18.498Z,1022.94
2018-01-29T03:33:18.461Z,1022.87
2018-01-29T03:34:18.417Z,1022.90
2018-01-29T03:35:18.382Z,1022.90
2018-01-29T03:36:18.337Z,1022.93
2018-01-29T03:37:18.328Z,1022.87
2018-01-29T03:38:18.263Z,1022.86
2018-01-29T03:39:18.226Z,1022.94
2018-01-29T03:40:18.195Z,1022.84
2018-01-29T03:41:18.156Z,1022.89
2018-01-29T03:42:18.115Z,1022.83
2018-01-29T03:43:18.099Z,1022.92
2018-01-29T03:44:18.029Z,1022.89
2018-01-29T03:45:18.012Z,1022.92
2018-01-29T03:46:17.962Z,1022.98
2018-01-29T03:47:17.920Z,1022.95
2018-01-29T03:48:17.910Z,1022.93
2018-01-29T03:49:17.843Z,1022.97
2018-01-29T03:50:17.796Z,1022.96
2018-01-29T03:51:17.763Z,1022.94
2018-01-29T03:52:17.721Z,1022.93
2018-01-29T03:53:17.692Z,1022.87
2018-01-29T03:54:17.690Z,1022.88
2018-01-29T03:55:17.609Z,1022.91
2018-01-29T03:56:17.567Z,1022.95
2018-01-29T03:57:17.535Z,1022.93
2018-01-29T03:58:17.541Z,1022.86
2018-01-29T03:59:17.451Z,1022.93
2018-01-29T04:00:17.440Z,1022.87
2018-01-29T04:01:17.384Z,1022.96
2018-01-29T04:02:17.351Z,1022.91
2018-01-29T04:03:17.300Z,1022.97
2018-01-29T04:04:17.260Z,1022.86
2018-01-29T04:05:17.225Z,1022.93
2018-01-29T04:06:17.220Z,1022.95
2018-01-29T04:07:17.144Z,1022.99
2018-01-29T04:08:17.104Z,1022.95
2018-01-29T04:09:17.064Z,1022.90
2018-01-29T04:10:17.026Z,1022.91
2018-01-29T04:11:16.990Z,1022.97
2018-01-29T04:12:16.985Z,1022.88
2018-01-29T04:13:16.916Z,1022.91
2018-01-29T04:14:16.880Z,1022.94
2018-01-29T04:15:16.868Z,1023.03
2018-01-29T04:16:16.809Z,1022.96
2018-01-29T04:17:16.793Z,1022.94
2018-01-29T04:18:16.749Z,1022.92
2018-01-29T04:19:16.688Z,1022.96
2018-01-29T04:20:16.637Z,1022.97
2018-01-29T04:21:16.605Z,1022.92
2018-01-29T04:22:16.572Z,1022.89
2018-01-29T04:23:16.555Z,1022.96
2018-01-29T04:24:16.514Z,1022.92
2018-01-29T04:25:16.450Z,1022.82
2018-01-29T04:26:16.405Z,1022.86
2018-01-29T04:27:16.377Z,1022.86
2018-01-29T04:28:16.342Z,1022.88
2018-01-29T04:29:16.326Z,1022.88
2018-01-29T04:30:16.264Z,1022.92
2018-01-29T04:31:16.223Z,1022.88
2018-01-29T04:32:16.195Z,1022.91
2018-01-29T04:33:16.144Z,1022.82
2018-01-29T04:34:16.102Z,1022.82
2018-01-29T04:35:16.092Z,1022.79
2018-01-29T04:36:16.025Z,1022.85
2018-01-29T04:37:15.994Z,1022.86
2018-01-29T04:38:15.948Z,1022.79
2018-01-29T04:39:15.914Z,1022.78
2018-01-29T04:40:15.896Z,1022.82
2018-01-29T04:41:15.846Z,1022.80
2018-01-29T04:42:15.793Z,1022.77
2018-01-29T04:43:15.756Z,1022.78
2018-01-29T04:44:15.736Z,1022.80
2018-01-29T04:45:15.686Z,1022.77
2018-01-29T04:46:15.669Z,1022.80
2018-01-29T04:47:15.607Z,1022.78
2018-01-29T04:48:15.642Z,1022.74
2018-01-29T04:49:15.534Z,1022.78
2018-01-29T04:50:15.482Z,1022.74
2018-01-29T04:51:15.480Z,1022.73
2018-01-29T04:52:15.408Z,1022.72
2018-01-29T04:53:15.365Z,1022.66
2018-01-29T04:54:15.337Z,1022.68
2018-01-29T04:55:15.300Z,1022.53
2018-01-29T04:56:15.291Z,1022.63
2018-01-29T04:57:15.213Z,1022.59
2018-01-29T04:58:15.183Z,1022.63
2018-01-29T04:59:15.151Z,1022.63
2018-01-29T05:00:15.106Z,1022.60
2018-01-29T05:01:15.067Z,1022.58
2018-01-29T05:02:15.051Z,1022.65
2018-01-29T05:03:14.986Z,1022.65
2018-01-29T05:04:14.950Z,1022.61
2018-01-29T05:05:14.915Z,1022.57
2018-01-29T05:06:14.880Z,1022.57
2018-01-29T05:07:14.831Z,1022.51
2018-01-29T05:08:14.820Z,1022.51
2018-01-29T05:09:14.764Z,1022.50
2018-01-29T05:10:14.724Z,1022.47
2018-01-29T05:11:14.676Z,1022.56
2018-01-29T05:12:14.646Z,1022.50
2018-01-29T05:13:14.606Z,1022.55
2018-01-29T05:14:14.592Z,1022.52
2018-01-29T05:15:14.524Z,1022.55
2018-01-29T05:16:14.483Z,1022.57
2018-01-29T05:17:14.458Z,1022.56
2018-01-29T05:18:14.419Z,1022.58
2018-01-29T05:19:14.390Z,1022.59
2018-01-29T05:20:14.362Z,1022.57
2018-01-29T05:21:14.294Z,1022.61
2018-01-29T05:22:14.255Z,1022.62
2018-01-29T05:23:14.238Z,1022.63
2018-01-29T05:24:14.192Z,1022.65
2018-01-29T05:25:14.142Z,1022.61
2018-01-29T05:26:14.128Z,1022.58
2018-01-29T05:27:14.071Z,1022.62
2018-01-29T05:28:14.027Z,1022.55
2018-01-29T05:29:13.988Z,1022.64
2018-01-29T05:30:13.946Z,1022.62
2018-01-29T05:31:13.920Z,1022.64
2018-01-29T05:32:13.907Z,1022.65
2018-01-29T05:33:13.839Z,1022.66
2018-01-29T05:34:13.796Z,1022.66
2018-01-29T05:35:13.763Z,1022.64
2018-01-29T05:36:13.720Z,1022.59
2018-01-29T05:37:13.689Z,1022.62
2018-01-29T05:38:13.680Z,1022.58
2018-01-29T05:39:14.105Z,1022.60
2018-01-29T05:40:13.564Z,1022.65
2018-01-29T05:41:13.551Z,1022.62
2018-01-29T05:42:13.492Z,1022.62
2018-01-29T05:43:13.448Z,1022.59
2018-01-29T05:44:13.445Z,1022.62
2018-01-29T05:45:13.380Z,1022.62
2018-01-29T05:46:13.333Z,1022.62
2018-01-29T05:47:13.293Z,1022.50
2018-01-29T05:48:13.258Z,1022.53
2018-01-29T05:49:13.220Z,1022.51
2018-01-29T05:50:13.219Z,1022.51
2018-01-29T05:51:13.148Z,1022.52
2018-01-29T05:52:13.112Z,1022.52
2018-01-29T05:53:13.064Z,1022.53
2018-01-29T05:54:13.034Z,1022.49
2018-01-29T05:55:12.990Z,1022.39
2018-01-29T05:56:12.988Z,1022.49
2018-01-29T05:57:12.921Z,1022.54
2018-01-29T05:58:12.875Z,1022.49
2018-01-29T05:59:12.841Z,1022.45
2018-01-29T06:00:12.802Z,1022.50
2018-01-29T06:01:12.763Z,1022.52
2018-01-29T06:02:12.755Z,1022.41
2018-01-29T06:03:12.689Z,1022.48
2018-01-29T06:04:12.647Z,1022.49
2018-01-29T06:05:12.602Z,1022.43
2018-01-29T06:06:12.566Z,1022.47
2018-01-29T06:07:12.527Z,1022.47
2018-01-29T06:08:12.626Z,1022.50
2018-01-29T06:09:12.455Z,1022.52
2018-01-29T06:10:12.411Z,1022.45
2018-01-29T06:11:12.372Z,1022.44
2018-01-29T06:12:12.334Z,1022.54
2018-01-29T06:13:12.311Z,1022.52
2018-01-29T06:14:12.295Z,1022.54
2018-01-29T06:15:12.230Z,1022.50
2018-01-29T06:16:12.193Z,1022.44
2018-01-29T06:17:12.151Z,1022.43
2018-01-29T06:18:12.107Z,1022.42
2018-01-29T06:19:12.072Z,1022.46
2018-01-29T06:20:12.056Z,1022.41
2018-01-29T06:21:11.998Z,1022.40
2018-01-29T06:22:11.945Z,1022.46
2018-01-29T06:23:11.926Z,1022.49
2018-01-29T06:24:11.873Z,1022.53
2018-01-29T06:25:11.839Z,1022.51
2018-01-29T06:26:11.831Z,1022.52
2018-01-29T06:27:11.764Z,1022.49
2018-01-29T06:28:11.723Z,1022.45
2018-01-29T06:29:11.686Z,1022.52
2018-01-29T06:30:11.654Z,1022.40
2018-01-29T06:31:11.612Z,1022.52
2018-01-29T06:32:11.588Z,1022.50
2018-01-29T06:33:11.535Z,1022.46
2018-01-29T06:34:11.493Z,1022.45
2018-01-29T06:35:11.455Z,1022.45
2018-01-29T06:36:11.413Z,1022.43
2018-01-29T06:37:11.408Z,1022.49
2018-01-29T06:38:11.342Z,1022.46
2018-01-29T06:39:11.317Z,1022.40
2018-01-29T06:40:11.266Z,1022.38
2018-01-29T06:41:11.222Z,1022.39
2018-01-29T06:42:11.184Z,1022.41
2018-01-29T06:43:11.167Z,1022.31
2018-01-29T06:44:11.109Z,1022.27
2018-01-29T06:45:11.068Z,1022.32
2018-01-29T06:46:11.033Z,1022.40
2018-01-29T06:47:10.995Z,1022.38
2018-01-29T06:48:10.954Z,1022.37
2018-01-29T06:49:10.940Z,1022.34
2018-01-29T06:50:10.874Z,1022.36
2018-01-29T06:51:10.845Z,1022.33
2018-01-29T06:52:10.803Z,1022.34
2018-01-29T06:53:10.768Z,1022.38
2018-01-29T06:54:10.717Z,1022.37
2018-01-29T06:55:10.706Z,1022.41
2018-01-29T06:56:10.660Z,1022.47
2018-01-29T06:57:10.610Z,1022.39
2018-01-29T06:58:10.572Z,1022.36
2018-01-29T06:59:10.532Z,1022.34
2018-01-29T07:00:10.536Z,1022.36
2018-01-29T07:01:10.457Z,1022.39
2018-01-29T07:02:10.410Z,1022.33
2018-01-29T07:03:10.372Z,1022.29
2018-01-29T07:04:10.351Z,1022.26
2018-01-29T07:05:10.326Z,1022.35
2018-01-29T07:06:10.261Z,1022.27
2018-01-29T07:07:10.231Z,1022.29
2018-01-29T07:08:10.183Z,1022.25
2018-01-29T07:09:10.194Z,1022.24
2018-01-29T07:10:10.106Z,1022.31
2018-01-29T07:11:10.105Z,1022.30
2018-01-29T07:12:10.037Z,1022.35
2018-01-29T07:13:10.002Z,1022.36
2018-01-29T07:14:09.958Z,1022.32
2018-01-29T07:15:09.913Z,1022.36
2018-01-29T07:16:09.880Z,1022.32
2018-01-29T07:17:09.866Z,1022.41
2018-01-29T07:18:09.805Z,1022.33
2018-01-29T07:19:09.759Z,1022.33
2018-01-29T07:20:09.722Z,1022.36
2018-01-29T07:21:09.682Z,1022.32
2018-01-29T07:22:09.647Z,1022.39
2018-01-29T07:23:09.638Z,1022.34
2018-01-29T07:24:09.576Z,1022.36
2018-01-29T07:25:09.531Z,1022.33
2018-01-29T07:26:09.496Z,1022.31
2018-01-29T07:27:09.461Z,1022.30
2018-01-29T07:28:09.423Z,1022.27
2018-01-29T07:29:09.402Z,1022.28
2018-01-29T07:30:09.354Z,1022.19
2018-01-29T07:31:09.298Z,1022.23
2018-01-29T07:32:09.260Z,1022.19
2018-01-29T07:33:09.224Z,1022.24
2018-01-29T07:34:09.239Z,1022.22
2018-01-29T07:35:09.142Z,1022.21
2018-01-29T07:36:09.107Z,1022.20
2018-01-29T07:37:09.072Z,1022.25
2018-01-29T07:38:09.038Z,1022.28
2018-01-29T07:39:09.014Z,1022.28
2018-01-29T07:40:08.979Z,1022.27
2018-01-29T07:41:08.922Z,1022.26
2018-01-29T07:42:08.877Z,1022.28
2018-01-29T07:43:08.836Z,1022.26
2018-01-29T07:44:08.803Z,1022.15
2018-01-29T07:45:08.797Z,1022.24
2018-01-29T07:46:08.749Z,1022.28
2018-01-29T07:47:11.672Z,1022.33
2018-01-29T07:48:08.754Z,1022.23
2018-01-29T07:49:08.647Z,1022.17
2018-01-29T07:50:08.620Z,1022.20
2018-01-29T07:51:08.583Z,1022.20
2018-01-29T07:52:08.498Z,1022.23
2018-01-29T07:53:08.454Z,1022.18
2018-01-29T07:54:08.420Z,1022.11
2018-01-29T07:55:08.386Z,1022.22
2018-01-29T07:56:08.379Z,1022.24
2018-01-29T07:57:08.387Z,1022.22
2018-01-29T07:58:08.297Z,1022.21
2018-01-29T07:59:08.231Z,1022.19
2018-01-29T08:00:08.213Z,1022.23
2018-01-29T08:01:08.163Z,1022.18
2018-01-29T08:02:08.109Z,1022.22
2018-01-29T08:03:08.108Z,1022.12
2018-01-29T08:04:08.037Z,1022.14
2018-01-29T08:05:07.997Z,1022.15
2018-01-29T08:06:07.962Z,1022.11
2018-01-29T08:07:07.929Z,1022.21
2018-01-29T08:08:07.909Z,1022.16
2018-01-29T08:09:07.848Z,1022.18
2018-01-29T08:10:07.805Z,1022.11
2018-01-29T08:11:07.764Z,1022.23
2018-01-29T08:12:07.727Z,1022.07
2018-01-29T08:13:07.706Z,1022.03
2018-01-29T08:14:07.682Z,1022.07
2018-01-29T08:15:07.616Z,1021.97
2018-01-29T08:16:07.584Z,1021.98
2018-01-29T08:17:07.535Z,1021.92
2018-01-29T08:18:07.499Z,1021.96
2018-01-29T08:19:07.488Z,1021.96
2018-01-29T08:20:07.438Z,1021.89
2018-01-29T08:21:07.381Z,1021.88
2018-01-29T08:22:07.352Z,1021.86
2018-01-29T08:23:07.301Z,1021.91
2018-01-29T08:24:07.268Z,1021.86
2018-01-29T08:25:07.257Z,1021.95
2018-01-29T08:26:07.206Z,1021.91
2018-01-29T08:27:07.151Z,1021.92
2018-01-29T08:28:07.123Z,1021.87
2018-01-29T08:29:07.088Z,1021.85
2018-01-29T08:30:07.049Z,1021.95
2018-01-29T08:31:07.031Z,1021.85
2018-01-29T08:32:06.961Z,1021.86
2018-01-29T08:33:06.924Z,1021.88
2018-01-29T08:34:06.894Z,1021.90
2018-01-29T08:35:06.851Z,1021.87
2018-01-29T08:36:06.818Z,1021.93
2018-01-29T08:37:06.808Z,1021.90
2018-01-29T08:38:06.741Z,1021.94
2018-01-29T08:39:06.699Z,1021.90
2018-01-29T08:40:06.665Z,1021.92
2018-01-29T08:41:06.618Z,1021.91
2018-01-29T08:42:06.592Z,1021.95
2018-01-29T08:43:06.575Z,1021.90
2018-01-29T08:44:06.506Z,1021.98
2018-01-29T08:45:06.464Z,1021.95
2018-01-29T08:46:06.456Z,1021.95
2018-01-29T08:47:06.399Z,1021.97
2018-01-29T08:48:06.350Z,1021.98
2018-01-29T08:49:06.348Z,1021.96
2018-01-29T08:50:06.275Z,1021.94
2018-01-29T08:51:06.248Z,1021.96
2018-01-29T08:52:06.195Z,1022.03
2018-01-29T08:53:06.162Z,1021.97
2018-01-29T08:54:06.117Z,1021.94
2018-01-29T08:55:06.121Z,1021.90
2018-01-29T08:56:06.051Z,1021.91
2018-01-29T08:57:06.019Z,1021.92
2018-01-29T08:58:05.970Z,1021.91
2018-01-29T08:59:05.930Z,1021.93
2018-01-29T09:00:05.890Z,1021.97
2018-01-29T09:01:05.887Z,1021.86
2018-01-29T09:02:05.855Z,1021.89
2018-01-29T09:03:05.778Z,1021.90
2018-01-29T09:04:05.750Z,1021.90
2018-01-29T09:05:05.710Z,1021.81
2018-01-29T09:06:05.663Z,1021.89
2018-01-29T09:07:05.646Z,1021.77
2018-01-29T09:08:05.585Z,1021.79
2018-01-29T09:09:05.546Z,1021.80
2018-01-29T09:10:05.514Z,1021.80
2018-01-29T09:11:05.489Z,1021.80
2018-01-29T09:12:05.458Z,1021.83
2018-01-29T09:13:05.407Z,1021.79
2018-01-29T09:14:05.364Z,1021.80
2018-01-29T09:15:05.337Z,1021.75
2018-01-29T09:16:05.278Z,1021.76
2018-01-29T09:17:05.247Z,1021.76
2018-01-29T09:18:05.245Z,1021.67
2018-01-29T09:19:05.162Z,1021.71
2018-01-29T09:20:05.133Z,1021.71
2018-01-29T09:21:05.097Z,1021.75
2018-01-29T09:22:05.057Z,1021.72
2018-01-29T09:23:05.017Z,1021.71
2018-01-29T09:24:04.997Z,1021.70
2018-01-29T09:25:04.932Z,1021.70
2018-01-29T09:26:04.901Z,1021.71
2018-01-29T09:27:04.877Z,1021.76
2018-01-29T09:28:04.835Z,1021.60
2018-01-29T09:29:04.787Z,1021.76
2018-01-29T09:30:04.771Z,1021.67
2018-01-29T09:31:04.716Z,1021.62
2018-01-29T09:32:04.675Z,1021.66
2018-01-29T09:33:04.640Z,1021.59
2018-01-29T09:34:04.596Z,1021.65
2018-01-29T09:35:04.561Z,1021.55
2018-01-29T09:36:04.546Z,1021.65
2018-01-29T09:37:04.477Z,1021.57
2018-01-29T09:38:04.451Z,1021.56
2018-01-29T09:39:04.411Z,1021.57
2018-01-29T09:40:04.370Z,1021.56
2018-01-29T09:41:04.333Z,1021.55
2018-01-29T09:42:04.372Z,1021.50
2018-01-29T09:43:04.251Z,1021.52
2018-01-29T09:44:04.211Z,1021.50
2018-01-29T09:45:04.178Z,1021.47
2018-01-29T09:46:04.144Z,1021.50
2018-01-29T09:47:04.101Z,1021.57
2018-01-29T09:48:04.082Z,1021.60
2018-01-29T09:49:04.025Z,1021.52
2018-01-29T09:50:03.991Z,1021.53
2018-01-29T09:51:03.953Z,1021.57
2018-01-29T09:52:03.919Z,1021.50
2018-01-29T09:53:03.896Z,1021.56
2018-01-29T09:54:03.835Z,1021.55
2018-01-29T09:55:03.798Z,1021.57
2018-01-29T09:56:03.764Z,1021.66
2018-01-29T09:57:03.719Z,1021.64
2018-01-29T09:58:03.692Z,1021.65
2018-01-29T09:59:03.670Z,1021.65
2018-01-29T10:00:03.611Z,1021.71
2018-01-29T10:01:03.572Z,1021.65
2018-01-29T10:02:03.534Z,1021.66
2018-01-29T10:03:03.497Z,1021.64
2018-01-29T10:04:03.485Z,1021.68
2018-01-29T10:05:03.415Z,1021.66
2018-01-29T10:06:03.374Z,1021.70
2018-01-29T10:07:03.341Z,1021.61
2018-01-29T10:08:03.304Z,1021.62
2018-01-29T10:09:03.258Z,1021.67
2018-01-29T10:10:03.259Z,1021.55
2018-01-29T10:11:03.198Z,1021.61
2018-01-29T10:12:03.157Z,1021.61
2018-01-29T10:13:03.116Z,1021.56
2018-01-29T10:14:03.074Z,1021.64
2018-01-29T10:15:03.038Z,1021.65
2018-01-29T10:16:03.035Z,1021.54
2018-01-29T10:17:02.962Z,1021.59
2018-01-29T10:18:02.916Z,1021.56
2018-01-29T10:19:02.888Z,1021.47
2018-01-29T10:20:02.860Z,1021.47
2018-01-29T10:21:02.810Z,1021.51
2018-01-29T10:22:02.790Z,1021.52
2018-01-29T10:23:02.739Z,1021.46
2018-01-29T10:24:02.694Z,1021.48
2018-01-29T10:25:02.660Z,1021.36
2018-01-29T10:26:02.623Z,1021.42
2018-01-29T10:27:02.604Z,1021.44
2018-01-29T10:28:02.542Z,1021.39
2018-01-29T10:29:02.509Z,1021.37
2018-01-29T10:30:02.478Z,1021.42
2018-01-29T10:31:02.446Z,1021.31
2018-01-29T10:32:02.395Z,1021.36
2018-01-29T10:33:02.399Z,1021.30
2018-01-29T10:34:02.313Z,1021.28
2018-01-29T10:35:02.275Z,1021.37
2018-01-29T10:36:02.240Z,1021.31
2018-01-29T10:37:02.246Z,1021.26
2018-01-29T10:38:02.173Z,1021.30
2018-01-29T10:39:02.151Z,1021.25
2018-01-29T10:40:02.091Z,1021.24
2018-01-29T10:41:02.062Z,1021.26
2018-01-29T10:42:02.018Z,1021.17
2018-01-29T10:43:01.977Z,1021.16
2018-01-29T10:44:01.965Z,1021.14
2018-01-29T10:45:01.902Z,1021.28
2018-01-29T10:46:01.857Z,1021.25
2018-01-29T10:47:01.819Z,1021.26
2018-01-29T10:48:01.783Z,1021.21
2018-01-29T10:49:01.773Z,1021.22
2018-01-29T10:50:01.714Z,1021.18
2018-01-29T10:51:01.668Z,1021.20
2018-01-29T10:52:01.638Z,1021.17
2018-01-29T10:53:01.595Z,1021.20
2018-01-29T10:54:01.590Z,1021.15
2018-01-29T10:55:01.527Z,1021.17
2018-01-29T10:56:01.487Z,1021.18
2018-01-29T10:57:01.442Z,1021.15
2018-01-29T10:58:01.408Z,1021.13
2018-01-29T10:59:01.366Z,1021.04
2018-01-29T11:00:01.364Z,1020.96
2018-01-29T11:01:01.292Z,1020.99
2018-01-29T11:02:01.258Z,1020.95
2018-01-29T11:03:01.214Z,1020.98
2018-01-29T11:04:01.187Z,1020.99
2018-01-29T11:05:01.143Z,1021.01
2018-01-29T11:06:01.129Z,1021.05
2018-01-29T11:07:01.068Z,1020.99
2018-01-29T11:08:01.020Z,1020.89
2018-01-29T11:09:00.982Z,1020.96
2018-01-29T11:10:00.946Z,1020.92
2018-01-29T11:11:00.915Z,1020.85
2018-01-29T11:12:00.902Z,1021.03
2018-01-29T11:13:00.839Z,1020.98
2018-01-29T11:14:00.805Z,1020.98
2018-01-29T11:15:00.766Z,1020.94
2018-01-29T11:16:00.722Z,1020.93
2018-01-29T11:17:00.688Z,1020.86
2018-01-29T11:18:00.671Z,1020.88
2018-01-29T11:19:00.604Z,1020.85
2018-01-29T11:20:00.568Z,1020.78
2018-01-29T11:21:00.528Z,1020.86
2018-01-29T11:22:00.492Z,1020.79
2018-01-29T11:23:00.478Z,1020.81
2018-01-29T11:24:00.766Z,1020.77
2018-01-29T11:25:00.380Z,1020.73
2018-01-29T11:26:00.344Z,1020.82
2018-01-29T11:27:00.309Z,1020.72
2018-01-29T11:28:00.266Z,1020.70
2018-01-29T11:29:00.230Z,1020.84
2018-01-29T11:30:00.218Z,1020.66
2018-01-29T11:31:00.157Z,1020.71
2018-01-29T11:32:00.120Z,1020.76
2018-01-29T11:33:00.080Z,1020.69
2018-01-29T11:34:00.040Z,1020.66
2018-01-29T11:35:00.007Z,1020.67
2018-01-29T11:35:59.985Z,1020.61
2018-01-29T11:36:59.928Z,1020.56
2018-01-29T11:37:59.898Z,1020.59
2018-01-29T11:38:59.850Z,1020.62
2018-01-29T11:39:59.810Z,1020.64
2018-01-29T11:40:59.805Z,1020.59
2018-01-29T11:41:59.734Z,1020.55
2018-01-29T11:42:59.694Z,1020.57
2018-01-29T11:43:59.666Z,1020.55
2018-01-29T11:44:59.628Z,1020.42
2018-01-29T11:45:59.590Z,1020.49
2018-01-29T11:46:59.577Z,1020.48
2018-01-29T11:47:59.505Z,1020.48
2018-01-29T11:48:59.469Z,1020.54
2018-01-29T11:49:59.430Z,1020.56
2018-01-29T11:50:59.396Z,1020.43
2018-01-29T11:51:59.361Z,1020.51
2018-01-29T11:52:59.343Z,1020.52
2018-01-29T11:53:59.286Z,1020.48
2018-01-29T11:54:59.243Z,1020.56
2018-01-29T11:55:59.219Z,1020.39
2018-01-29T11:56:59.198Z,1020.37
2018-01-29T11:57:59.134Z,1020.34
2018-01-29T11:58:59.093Z,1020.30
2018-01-29T11:59:59.059Z,1020.44
2018-01-29T12:00:59.018Z,1020.34
2018-01-29T12:01:58.974Z,1020.38
2018-01-29T12:02:58.973Z,1020.36
2018-01-29T12:03:58.902Z,1020.29
2018-01-29T12:04:58.861Z,1020.27